sensor_id;sensor_type;location;lat;lon;timestamp;temperature;humidity
65584;DHT22;62116;43.582;1.470;2023-03-17T00:00:19;12.73;75.79
65584;DHT22;62116;43.582;1.470;2023-03-17T00:02:47;12.69;76.07
65584;DHT22;62116;43.582;1.470;2023-03-17T00:05:33;12.70;76.08
65584;DHT22;62116;43.582;1.470;2023-03-17T00:08:24;12.64;76.27
65584;DHT22;62116;43.582;1.470;2023-03-17T00:10:51;12.69;76.18
65584;DHT22;62116;43.582;1.470;2023-03-17T00:13:16;12.76;75.96
65584;DHT22;62116;43.582;1.470;2023-03-17T00:15:42;12.72;76.09
65584;DHT22;62116;43.582;1.470;2023-03-17T00:18:14;12.73;76.24
65584;DHT22;62116;43.582;1.470;2023-03-17T00:20:40;12.72;76.24
65584;DHT22;62116;43.582;1.470;2023-03-17T00:23:18;12.76;76.20
65584;DHT22;62116;43.582;1.470;2023-03-17T00:25:45;12.73;76.26
65584;DHT22;62116;43.582;1.470;2023-03-17T00:28:24;12.73;76.30
65584;DHT22;62116;43.582;1.470;2023-03-17T00:30:54;12.72;76.34
65584;DHT22;62116;43.582;1.470;2023-03-17T00:33:23;12.75;76.35
65584;DHT22;62116;43.582;1.470;2023-03-17T00:35:49;12.75;76.33
65584;DHT22;62116;43.582;1.470;2023-03-17T00:38:17;12.73;76.43
65584;DHT22;62116;43.582;1.470;2023-03-17T00:40:43;12.72;76.54
65584;DHT22;62116;43.582;1.470;2023-03-17T00:43:10;12.73;76.60
65584;DHT22;62116;43.582;1.470;2023-03-17T00:45:37;12.75;76.68
65584;DHT22;62116;43.582;1.470;2023-03-17T00:48:15;12.76;76.61
65584;DHT22;62116;43.582;1.470;2023-03-17T00:50:41;12.77;76.57
65584;DHT22;62116;43.582;1.470;2023-03-17T00:53:12;12.75;76.53
65584;DHT22;62116;43.582;1.470;2023-03-17T00:55:40;12.76;76.60
65584;DHT22;62116;43.582;1.470;2023-03-17T00:58:27;12.75;76.67
65584;DHT22;62116;43.582;1.470;2023-03-17T01:00:53;12.73;76.64
65584;DHT22;62116;43.582;1.470;2023-03-17T01:03:19;12.73;76.58
65584;DHT22;62116;43.582;1.470;2023-03-17T01:05:46;12.75;76.51
65584;DHT22;62116;43.582;1.470;2023-03-17T01:08:12;12.76;76.40
65584;DHT22;62116;43.582;1.470;2023-03-17T01:10:38;12.77;76.31
65584;DHT22;62116;43.582;1.470;2023-03-17T01:13:05;12.84;76.18
65584;DHT22;62116;43.582;1.470;2023-03-17T01:15:31;12.81;76.05
65584;DHT22;62116;43.582;1.470;2023-03-17T01:17:59;12.83;76.10
65584;DHT22;62116;43.582;1.470;2023-03-17T01:20:31;12.79;76.25
65584;DHT22;62116;43.582;1.470;2023-03-17T01:22:57;12.79;76.37
65584;DHT22;62116;43.582;1.470;2023-03-17T01:25:23;12.80;76.40
65584;DHT22;62116;43.582;1.470;2023-03-17T01:27:48;12.77;76.69
65584;DHT22;62116;43.582;1.470;2023-03-17T01:30:46;12.76;76.89
65584;DHT22;62116;43.582;1.470;2023-03-17T01:33:13;12.79;76.96
65584;DHT22;62116;43.582;1.470;2023-03-17T01:35:40;12.84;76.92
65584;DHT22;62116;43.582;1.470;2023-03-17T01:38:06;12.81;77.04
65584;DHT22;62116;43.582;1.470;2023-03-17T01:40:40;12.81;76.95
65584;DHT22;62116;43.582;1.470;2023-03-17T01:48:37;12.77;76.96
65584;DHT22;62116;43.582;1.470;2023-03-17T01:51:06;12.84;76.71
65584;DHT22;62116;43.582;1.470;2023-03-17T01:53:34;12.86;76.43
65584;DHT22;62116;43.582;1.470;2023-03-17T01:56:01;12.89;76.29
65584;DHT22;62116;43.582;1.470;2023-03-17T01:58:27;12.89;76.33
65584;DHT22;62116;43.582;1.470;2023-03-17T02:00:52;12.87;76.37
65584;DHT22;62116;43.582;1.470;2023-03-17T02:03:18;12.91;76.24
65584;DHT22;62116;43.582;1.470;2023-03-17T02:05:44;12.89;76.31
65584;DHT22;62116;43.582;1.470;2023-03-17T02:08:12;12.90;76.07
65584;DHT22;62116;43.582;1.470;2023-03-17T02:10:38;12.91;76.09
65584;DHT22;62116;43.582;1.470;2023-03-17T02:13:06;12.89;75.97
65584;DHT22;62116;43.582;1.470;2023-03-17T02:15:39;12.90;76.03
65584;DHT22;62116;43.582;1.470;2023-03-17T02:18:05;12.93;76.07
65584;DHT22;62116;43.582;1.470;2023-03-17T02:22:57;12.90;76.11
65584;DHT22;62116;43.582;1.470;2023-03-17T02:25:25;12.94;76.08
65584;DHT22;62116;43.582;1.470;2023-03-17T02:27:55;12.93;76.15
65584;DHT22;62116;43.582;1.470;2023-03-17T02:30:22;12.96;76.16
65584;DHT22;62116;43.582;1.470;2023-03-17T02:32:49;12.96;76.16
65584;DHT22;62116;43.582;1.470;2023-03-17T02:35:15;13.00;76.17
65584;DHT22;62116;43.582;1.470;2023-03-17T02:37:41;12.91;76.26
65584;DHT22;62116;43.582;1.470;2023-03-17T02:40:09;12.94;76.35
65584;DHT22;62116;43.582;1.470;2023-03-17T02:42:35;12.90;76.30
65584;DHT22;62116;43.582;1.470;2023-03-17T02:45:01;12.90;76.28
65584;DHT22;62116;43.582;1.470;2023-03-17T02:47:26;12.96;76.14
65584;DHT22;62116;43.582;1.470;2023-03-17T02:49:52;12.96;76.06
65584;DHT22;62116;43.582;1.470;2023-03-17T02:52:18;12.94;76.09
65584;DHT22;62116;43.582;1.470;2023-03-17T02:54:43;12.99;76.00
65584;DHT22;62116;43.582;1.470;2023-03-17T02:57:09;12.93;75.96
65584;DHT22;62116;43.582;1.470;2023-03-17T02:59:35;12.94;76.07
65584;DHT22;62116;43.582;1.470;2023-03-17T03:02:00;12.96;75.74
65584;DHT22;62116;43.582;1.470;2023-03-17T03:04:26;12.97;75.52
65584;DHT22;62116;43.582;1.470;2023-03-17T03:06:52;12.94;75.53
65584;DHT22;62116;43.582;1.470;2023-03-17T03:09:18;12.93;75.65
65584;DHT22;62116;43.582;1.470;2023-03-17T03:11:44;12.94;75.41
65584;DHT22;62116;43.582;1.470;2023-03-17T03:14:10;12.94;75.38
65584;DHT22;62116;43.582;1.470;2023-03-17T03:16:36;12.90;75.39
65584;DHT22;62116;43.582;1.470;2023-03-17T03:19:01;12.93;75.28
65584;DHT22;62116;43.582;1.470;2023-03-17T03:21:27;12.91;75.27
65584;DHT22;62116;43.582;1.470;2023-03-17T03:23:52;12.90;75.25
65584;DHT22;62116;43.582;1.470;2023-03-17T03:26:18;12.91;75.20
65584;DHT22;62116;43.582;1.470;2023-03-17T03:28:43;12.94;75.03
65584;DHT22;62116;43.582;1.470;2023-03-17T03:31:09;12.94;75.02
65584;DHT22;62116;43.582;1.470;2023-03-17T03:33:34;12.97;75.03
65584;DHT22;62116;43.582;1.470;2023-03-17T03:36:00;12.99;74.99
65584;DHT22;62116;43.582;1.470;2023-03-17T03:38:27;12.97;75.06
65584;DHT22;62116;43.582;1.470;2023-03-17T03:40:52;13.00;75.08
65584;DHT22;62116;43.582;1.470;2023-03-17T03:43:18;13.01;75.09
65584;DHT22;62116;43.582;1.470;2023-03-17T03:45:44;13.01;75.05
65584;DHT22;62116;43.582;1.470;2023-03-17T03:48:09;13.06;74.95
65584;DHT22;62116;43.582;1.470;2023-03-17T03:50:36;13.06;74.85
65584;DHT22;62116;43.582;1.470;2023-03-17T03:53:02;13.03;74.81
65584;DHT22;62116;43.582;1.470;2023-03-17T03:55:27;13.03;74.71
65584;DHT22;62116;43.582;1.470;2023-03-17T03:57:53;12.99;74.75
65584;DHT22;62116;43.582;1.470;2023-03-17T04:00:18;13.00;74.74
65584;DHT22;62116;43.582;1.470;2023-03-17T04:02:44;13.00;74.77
65584;DHT22;62116;43.582;1.470;2023-03-17T04:05:12;13.06;74.54
65584;DHT22;62116;43.582;1.470;2023-03-17T04:07:38;13.04;74.58
65584;DHT22;62116;43.582;1.470;2023-03-17T04:10:07;13.06;74.43
65584;DHT22;62116;43.582;1.470;2023-03-17T04:12:33;13.07;74.43
65584;DHT22;62116;43.582;1.470;2023-03-17T04:14:58;13.06;74.49
65584;DHT22;62116;43.582;1.470;2023-03-17T04:17:24;13.04;74.48
65584;DHT22;62116;43.582;1.470;2023-03-17T04:19:49;13.07;74.42
65584;DHT22;62116;43.582;1.470;2023-03-17T04:22:15;13.06;74.36
65584;DHT22;62116;43.582;1.470;2023-03-17T04:24:40;13.06;74.30
65584;DHT22;62116;43.582;1.470;2023-03-17T04:27:06;13.06;74.36
65584;DHT22;62116;43.582;1.470;2023-03-17T04:29:32;13.04;74.46
65584;DHT22;62116;43.582;1.470;2023-03-17T04:31:58;13.07;74.39
65584;DHT22;62116;43.582;1.470;2023-03-17T04:34:23;13.10;74.05
65584;DHT22;62116;43.582;1.470;2023-03-17T04:36:49;13.07;74.21
65584;DHT22;62116;43.582;1.470;2023-03-17T04:39:15;13.08;74.18
65584;DHT22;62116;43.582;1.470;2023-03-17T04:41:40;13.08;74.25
65584;DHT22;62116;43.582;1.470;2023-03-17T04:44:06;13.08;74.31
65584;DHT22;62116;43.582;1.470;2023-03-17T04:46:32;13.08;74.26
65584;DHT22;62116;43.582;1.470;2023-03-17T04:48:58;13.10;74.31
65584;DHT22;62116;43.582;1.470;2023-03-17T04:51:23;13.07;74.25
65584;DHT22;62116;43.582;1.470;2023-03-17T04:53:49;13.13;74.16
65584;DHT22;62116;43.582;1.470;2023-03-17T04:56:15;13.14;74.10
65584;DHT22;62116;43.582;1.470;2023-03-17T04:58:40;13.11;74.09
65584;DHT22;62116;43.582;1.470;2023-03-17T05:01:06;13.17;74.11
65584;DHT22;62116;43.582;1.470;2023-03-17T05:03:32;13.13;74.33
65584;DHT22;62116;43.582;1.470;2023-03-17T05:05:58;13.07;74.61
65584;DHT22;62116;43.582;1.470;2023-03-17T05:08:24;13.10;74.71
65584;DHT22;62116;43.582;1.470;2023-03-17T05:10:52;13.06;74.77
65584;DHT22;62116;43.582;1.470;2023-03-17T05:13:19;13.10;74.82
65584;DHT22;62116;43.582;1.470;2023-03-17T05:15:52;13.08;74.90
65584;DHT22;62116;43.582;1.470;2023-03-17T05:18:20;13.10;74.79
65584;DHT22;62116;43.582;1.470;2023-03-17T05:20:46;13.11;74.63
65584;DHT22;62116;43.582;1.470;2023-03-17T05:23:11;13.07;74.90
65584;DHT22;62116;43.582;1.470;2023-03-17T05:25:37;13.07;74.87
65584;DHT22;62116;43.582;1.470;2023-03-17T05:28:04;13.07;74.80
65584;DHT22;62116;43.582;1.470;2023-03-17T05:30:31;13.08;74.83
65584;DHT22;62116;43.582;1.470;2023-03-17T05:32:57;13.06;74.84
65584;DHT22;62116;43.582;1.470;2023-03-17T05:35:23;13.04;74.87
65584;DHT22;62116;43.582;1.470;2023-03-17T05:37:49;13.04;74.83
65584;DHT22;62116;43.582;1.470;2023-03-17T05:40:15;13.07;74.91
65584;DHT22;62116;43.582;1.470;2023-03-17T05:42:40;13.06;74.86
65584;DHT22;62116;43.582;1.470;2023-03-17T05:45:07;13.04;74.87
65584;DHT22;62116;43.582;1.470;2023-03-17T05:47:33;13.07;74.97
65584;DHT22;62116;43.582;1.470;2023-03-17T05:49:59;13.06;74.92
65584;DHT22;62116;43.582;1.470;2023-03-17T05:52:25;13.10;74.64
65584;DHT22;62116;43.582;1.470;2023-03-17T05:54:51;13.07;74.73
65584;DHT22;62116;43.582;1.470;2023-03-17T05:57:17;13.08;74.65
65584;DHT22;62116;43.582;1.470;2023-03-17T05:59:43;13.11;74.40
65584;DHT22;62116;43.582;1.470;2023-03-17T06:02:09;13.08;74.23
65584;DHT22;62116;43.582;1.470;2023-03-17T06:04:35;13.13;74.20
65584;DHT22;62116;43.582;1.470;2023-03-17T06:07:01;13.13;74.09
65584;DHT22;62116;43.582;1.470;2023-03-17T06:09:26;13.11;74.15
65584;DHT22;62116;43.582;1.470;2023-03-17T06:11:52;13.07;74.36
65584;DHT22;62116;43.582;1.470;2023-03-17T06:14:17;13.06;74.39
65584;DHT22;62116;43.582;1.470;2023-03-17T06:16:43;13.10;74.30
65584;DHT22;62116;43.582;1.470;2023-03-17T06:19:09;13.10;74.34
65584;DHT22;62116;43.582;1.470;2023-03-17T06:21:35;13.10;74.43
65584;DHT22;62116;43.582;1.470;2023-03-17T06:24:01;13.15;74.30
65584;DHT22;62116;43.582;1.470;2023-03-17T06:26:26;13.11;74.32
65584;DHT22;62116;43.582;1.470;2023-03-17T06:28:52;13.10;74.34
65584;DHT22;62116;43.582;1.470;2023-03-17T06:31:17;13.08;74.37
65584;DHT22;62116;43.582;1.470;2023-03-17T06:33:42;13.07;74.29
65584;DHT22;62116;43.582;1.470;2023-03-17T06:36:08;13.10;74.11
65584;DHT22;62116;43.582;1.470;2023-03-17T06:38:34;13.11;74.17
65584;DHT22;62116;43.582;1.470;2023-03-17T06:40:59;13.10;74.06
65584;DHT22;62116;43.582;1.470;2023-03-17T06:43:25;13.10;74.18
65584;DHT22;62116;43.582;1.470;2023-03-17T06:45:50;13.10;74.10
65584;DHT22;62116;43.582;1.470;2023-03-17T06:48:17;13.06;73.99
65584;DHT22;62116;43.582;1.470;2023-03-17T06:50:43;13.10;73.75
65584;DHT22;62116;43.582;1.470;2023-03-17T06:53:09;13.08;73.81
65584;DHT22;62116;43.582;1.470;2023-03-17T06:55:35;13.10;73.66
65584;DHT22;62116;43.582;1.470;2023-03-17T06:58:01;13.10;73.72
65584;DHT22;62116;43.582;1.470;2023-03-17T07:00:27;13.04;73.79
65584;DHT22;62116;43.582;1.470;2023-03-17T07:02:54;13.10;73.74
65584;DHT22;62116;43.582;1.470;2023-03-17T07:05:20;13.10;73.64
65584;DHT22;62116;43.582;1.470;2023-03-17T07:07:45;13.10;73.56
65584;DHT22;62116;43.582;1.470;2023-03-17T07:10:11;13.10;73.51
65584;DHT22;62116;43.582;1.470;2023-03-17T07:12:41;13.08;73.58
65584;DHT22;62116;43.582;1.470;2023-03-17T07:15:07;13.10;73.49
65584;DHT22;62116;43.582;1.470;2023-03-17T07:17:33;13.07;73.54
65584;DHT22;62116;43.582;1.470;2023-03-17T07:19:59;13.04;73.46
65584;DHT22;62116;43.582;1.470;2023-03-17T07:22:24;13.04;73.38
65584;DHT22;62116;43.582;1.470;2023-03-17T07:24:50;13.06;73.35
65584;DHT22;62116;43.582;1.470;2023-03-17T07:27:16;13.01;73.11
65584;DHT22;62116;43.582;1.470;2023-03-17T07:29:42;13.03;73.18
65584;DHT22;62116;43.582;1.470;2023-03-17T07:32:07;13.08;73.24
65584;DHT22;62116;43.582;1.470;2023-03-17T07:34:34;13.08;72.80
65584;DHT22;62116;43.582;1.470;2023-03-17T07:37:00;13.08;72.74
65584;DHT22;62116;43.582;1.470;2023-03-17T07:39:26;13.08;72.74
65584;DHT22;62116;43.582;1.470;2023-03-17T07:41:52;13.11;72.65
65584;DHT22;62116;43.582;1.470;2023-03-17T07:44:20;13.11;72.75
65584;DHT22;62116;43.582;1.470;2023-03-17T07:46:47;13.10;72.51
65584;DHT22;62116;43.582;1.470;2023-03-17T07:49:12;13.14;72.49
65584;DHT22;62116;43.582;1.470;2023-03-17T07:51:38;13.15;72.51
65584;DHT22;62116;43.582;1.470;2023-03-17T07:54:07;13.17;72.24
65584;DHT22;62116;43.582;1.470;2023-03-17T07:56:34;13.14;72.34
65584;DHT22;62116;43.582;1.470;2023-03-17T07:59:00;13.15;72.33
65584;DHT22;62116;43.582;1.470;2023-03-17T08:01:26;13.13;72.36
65584;DHT22;62116;43.582;1.470;2023-03-17T08:03:53;13.11;72.25
65584;DHT22;62116;43.582;1.470;2023-03-17T08:06:19;13.15;71.85
65584;DHT22;62116;43.582;1.470;2023-03-17T08:08:46;13.14;71.62
65584;DHT22;62116;43.582;1.470;2023-03-17T08:11:11;13.17;71.79
65584;DHT22;62116;43.582;1.470;2023-03-17T08:13:38;13.15;71.58
65584;DHT22;62116;43.582;1.470;2023-03-17T08:16:03;13.15;71.41
65584;DHT22;62116;43.582;1.470;2023-03-17T08:18:29;13.18;71.32
65584;DHT22;62116;43.582;1.470;2023-03-17T08:20:55;13.20;71.15
65584;DHT22;62116;43.582;1.470;2023-03-17T08:23:20;13.18;71.34
65584;DHT22;62116;43.582;1.470;2023-03-17T08:25:47;13.21;70.94
65584;DHT22;62116;43.582;1.470;2023-03-17T08:28:13;13.21;71.12
65584;DHT22;62116;43.582;1.470;2023-03-17T08:30:40;13.24;71.09
65584;DHT22;62116;43.582;1.470;2023-03-17T08:33:07;13.25;71.18
65584;DHT22;62116;43.582;1.470;2023-03-17T08:35:33;13.30;71.17
65584;DHT22;62116;43.582;1.470;2023-03-17T08:37:59;13.33;71.30
65584;DHT22;62116;43.582;1.470;2023-03-17T08:41:15;13.35;71.37
65584;DHT22;62116;43.582;1.470;2023-03-17T08:43:41;13.40;71.43
65584;DHT22;62116;43.582;1.470;2023-03-17T08:46:29;13.44;71.47
65584;DHT22;62116;43.582;1.470;2023-03-17T08:48:56;13.44;71.43
65584;DHT22;62116;43.582;1.470;2023-03-17T08:51:24;13.41;71.29
65584;DHT22;62116;43.582;1.470;2023-03-17T08:53:52;13.45;71.55
65584;DHT22;62116;43.582;1.470;2023-03-17T08:56:18;13.47;71.64
65584;DHT22;62116;43.582;1.470;2023-03-17T08:58:44;13.53;71.32
65584;DHT22;62116;43.582;1.470;2023-03-17T09:01:10;13.51;71.35
65584;DHT22;62116;43.582;1.470;2023-03-17T09:03:37;13.48;71.42
65584;DHT22;62116;43.582;1.470;2023-03-17T09:06:04;13.54;71.29
65584;DHT22;62116;43.582;1.470;2023-03-17T09:08:32;13.53;71.01
65584;DHT22;62116;43.582;1.470;2023-03-17T09:10:57;13.54;71.20
65584;DHT22;62116;43.582;1.470;2023-03-17T09:13:22;13.55;71.30
65584;DHT22;62116;43.582;1.470;2023-03-17T09:15:48;13.58;71.26
65584;DHT22;62116;43.582;1.470;2023-03-17T09:18:14;13.57;71.50
65584;DHT22;62116;43.582;1.470;2023-03-17T09:20:39;13.57;71.54
65584;DHT22;62116;43.582;1.470;2023-03-17T09:23:07;13.58;71.48
65584;DHT22;62116;43.582;1.470;2023-03-17T09:25:34;13.55;71.59
65584;DHT22;62116;43.582;1.470;2023-03-17T09:28:00;13.55;71.73
65584;DHT22;62116;43.582;1.470;2023-03-17T09:30:26;13.57;71.56
65584;DHT22;62116;43.582;1.470;2023-03-17T09:32:51;13.59;71.29
65584;DHT22;62116;43.582;1.470;2023-03-17T09:35:17;13.62;71.37
65584;DHT22;62116;43.582;1.470;2023-03-17T09:37:42;13.65;71.34
65584;DHT22;62116;43.582;1.470;2023-03-17T09:40:12;13.68;71.18
65584;DHT22;62116;43.582;1.470;2023-03-17T09:42:54;13.67;71.01
65584;DHT22;62116;43.582;1.470;2023-03-17T09:45:35;13.69;71.14
65584;DHT22;62116;43.582;1.470;2023-03-17T09:51:07;13.65;71.37
65584;DHT22;62116;43.582;1.470;2023-03-17T09:53:35;13.69;71.17
65584;DHT22;62116;43.582;1.470;2023-03-17T09:56:15;13.68;71.16
65584;DHT22;62116;43.582;1.470;2023-03-17T09:58:46;13.69;71.25
65584;DHT22;62116;43.582;1.470;2023-03-17T10:01:13;13.71;71.16
65584;DHT22;62116;43.582;1.470;2023-03-17T10:03:38;13.72;71.27
65584;DHT22;62116;43.582;1.470;2023-03-17T10:06:30;13.77;71.41
65584;DHT22;62116;43.582;1.470;2023-03-17T10:11:47;13.79;71.06
65584;DHT22;62116;43.582;1.470;2023-03-17T10:17:24;13.82;71.32
65584;DHT22;62116;43.582;1.470;2023-03-17T10:22:21;13.88;71.37
65584;DHT22;62116;43.582;1.470;2023-03-17T10:25:00;13.89;71.41
65584;DHT22;62116;43.582;1.470;2023-03-17T10:27:29;14.02;71.19
65584;DHT22;62116;43.582;1.470;2023-03-17T10:29:56;14.02;70.98
65584;DHT22;62116;43.582;1.470;2023-03-17T10:32:21;14.08;70.64
65584;DHT22;62116;43.582;1.470;2023-03-17T10:34:47;14.12;70.61
65584;DHT22;62116;43.582;1.470;2023-03-17T10:37:21;14.12;70.52
65584;DHT22;62116;43.582;1.470;2023-03-17T10:39:52;14.10;70.11
65584;DHT22;62116;43.582;1.470;2023-03-17T10:42:22;14.13;70.20
65584;DHT22;62116;43.582;1.470;2023-03-17T10:44:57;14.16;70.09
65584;DHT22;62116;43.582;1.470;2023-03-17T10:47:28;14.15;69.79
65584;DHT22;62116;43.582;1.470;2023-03-17T10:49:57;14.19;69.94
65584;DHT22;62116;43.582;1.470;2023-03-17T10:52:28;14.20;69.80
65584;DHT22;62116;43.582;1.470;2023-03-17T10:55:00;14.30;69.78
65584;DHT22;62116;43.582;1.470;2023-03-17T10:57:25;14.29;69.85
65584;DHT22;62116;43.582;1.470;2023-03-17T10:59:53;14.30;69.88
65584;DHT22;62116;43.582;1.470;2023-03-17T11:04:59;14.32;69.69
65584;DHT22;62116;43.582;1.470;2023-03-17T11:07:35;14.33;69.70
65584;DHT22;62116;43.582;1.470;2023-03-17T11:10:03;14.42;69.21
65584;DHT22;62116;43.582;1.470;2023-03-17T11:12:39;14.39;69.30
65584;DHT22;62116;43.582;1.470;2023-03-17T11:15:16;14.33;69.46
65584;DHT22;62116;43.582;1.470;2023-03-17T11:17:57;14.34;69.47
65584;DHT22;62116;43.582;1.470;2023-03-17T11:20:39;14.37;69.33
65584;DHT22;62116;43.582;1.470;2023-03-17T11:25:41;14.34;69.18
65584;DHT22;62116;43.582;1.470;2023-03-17T11:28:18;14.33;69.21
65584;DHT22;62116;43.582;1.470;2023-03-17T11:38:58;14.30;69.65
65584;DHT22;62116;43.582;1.470;2023-03-17T11:49:50;14.30;69.50
65584;DHT22;62116;43.582;1.470;2023-03-17T11:55:35;14.30;69.59
65584;DHT22;62116;43.582;1.470;2023-03-17T11:58:10;14.34;69.63
65584;DHT22;62116;43.582;1.470;2023-03-17T12:00:44;14.36;69.58
65584;DHT22;62116;43.582;1.470;2023-03-17T12:06:09;14.36;69.50
65584;DHT22;62116;43.582;1.470;2023-03-17T12:08:56;14.36;69.18
65584;DHT22;62116;43.582;1.470;2023-03-17T12:11:27;14.36;69.37
65584;DHT22;62116;43.582;1.470;2023-03-17T12:14:03;14.40;69.32
65584;DHT22;62116;43.582;1.470;2023-03-17T12:16:43;14.42;69.50
65584;DHT22;62116;43.582;1.470;2023-03-17T12:19:26;14.42;69.26
65584;DHT22;62116;43.582;1.470;2023-03-17T12:22:01;14.40;69.38
65584;DHT22;62116;43.582;1.470;2023-03-17T12:24:46;14.46;69.27
65584;DHT22;62116;43.582;1.470;2023-03-17T12:27:20;14.49;69.59
65584;DHT22;62116;43.582;1.470;2023-03-17T12:29:59;14.49;69.46
65584;DHT22;62116;43.582;1.470;2023-03-17T12:32:52;14.55;69.40
65584;DHT22;62116;43.582;1.470;2023-03-17T12:35:26;14.56;69.14
65584;DHT22;62116;43.582;1.470;2023-03-17T12:37:54;14.57;69.08
65584;DHT22;62116;43.582;1.470;2023-03-17T12:40:30;14.57;69.24
65584;DHT22;62116;43.582;1.470;2023-03-17T12:43:47;14.63;69.08
65584;DHT22;62116;43.582;1.470;2023-03-17T12:46:40;14.64;69.26
65584;DHT22;62116;43.582;1.470;2023-03-17T12:54:48;14.60;68.58
65584;DHT22;62116;43.582;1.470;2023-03-17T12:57:21;14.63;68.98
65584;DHT22;62116;43.582;1.470;2023-03-17T12:59:48;14.64;68.98
65584;DHT22;62116;43.582;1.470;2023-03-17T13:02:43;14.69;68.58
65584;DHT22;62116;43.582;1.470;2023-03-17T13:05:14;14.72;68.54
65584;DHT22;62116;43.582;1.470;2023-03-17T13:07:54;14.70;68.83
65584;DHT22;62116;43.582;1.470;2023-03-17T13:10:40;14.66;68.39
65584;DHT22;62116;43.582;1.470;2023-03-17T13:13:10;14.69;68.65
65584;DHT22;62116;43.582;1.470;2023-03-17T13:23:55;14.70;68.12
65584;DHT22;62116;43.582;1.470;2023-03-17T13:26:59;14.66;68.60
65584;DHT22;62116;43.582;1.470;2023-03-17T13:34:48;14.60;68.64
65584;DHT22;62116;43.582;1.470;2023-03-17T13:37:29;14.60;68.60
65584;DHT22;62116;43.582;1.470;2023-03-17T13:43:04;14.64;68.34
65584;DHT22;62116;43.582;1.470;2023-03-17T13:45:38;14.66;68.42
65584;DHT22;62116;43.582;1.470;2023-03-17T13:51:00;14.76;68.46
65584;DHT22;62116;43.582;1.470;2023-03-17T13:53:28;14.83;67.97
65584;DHT22;62116;43.582;1.470;2023-03-17T13:56:07;14.93;67.15
65584;DHT22;62116;43.582;1.470;2023-03-17T13:58:34;15.00;67.69
65584;DHT22;62116;43.582;1.470;2023-03-17T14:01:14;15.07;67.31
65584;DHT22;62116;43.582;1.470;2023-03-17T14:03:49;15.11;66.97
65584;DHT22;62116;43.582;1.470;2023-03-17T14:06:16;15.17;66.64
65584;DHT22;62116;43.582;1.470;2023-03-17T14:08:54;15.18;66.58
65584;DHT22;62116;43.582;1.470;2023-03-17T14:11:33;15.23;66.72
65584;DHT22;62116;43.582;1.470;2023-03-17T14:14:17;15.25;66.75
65584;DHT22;62116;43.582;1.470;2023-03-17T14:16:59;15.25;66.75
65584;DHT22;62116;43.582;1.470;2023-03-17T14:19:28;15.30;66.62
65584;DHT22;62116;43.582;1.470;2023-03-17T14:22:00;15.31;66.03
65584;DHT22;62116;43.582;1.470;2023-03-17T14:24:31;15.31;66.11
65584;DHT22;62116;43.582;1.470;2023-03-17T14:27:03;15.35;66.01
65584;DHT22;62116;43.582;1.470;2023-03-17T14:29:31;15.39;66.27
65584;DHT22;62116;43.582;1.470;2023-03-17T14:32:05;15.41;66.43
65584;DHT22;62116;43.582;1.470;2023-03-17T14:34:32;15.38;66.43
65584;DHT22;62116;43.582;1.470;2023-03-17T14:37:03;15.42;66.48
65584;DHT22;62116;43.582;1.470;2023-03-17T14:39:29;15.44;66.49
65584;DHT22;62116;43.582;1.470;2023-03-17T14:42:03;15.44;66.40
65584;DHT22;62116;43.582;1.470;2023-03-17T14:44:49;15.45;66.34
65584;DHT22;62116;43.582;1.470;2023-03-17T14:47:24;15.48;66.34
65584;DHT22;62116;43.582;1.470;2023-03-17T14:49:51;15.51;65.95
65584;DHT22;62116;43.582;1.470;2023-03-17T14:52:25;15.44;65.85
65584;DHT22;62116;43.582;1.470;2023-03-17T14:54:53;15.39;66.52
65584;DHT22;62116;43.582;1.470;2023-03-17T14:57:25;15.38;67.04
65584;DHT22;62116;43.582;1.470;2023-03-17T14:59:56;15.37;67.04
65584;DHT22;62116;43.582;1.470;2023-03-17T15:02:29;15.31;67.09
65584;DHT22;62116;43.582;1.470;2023-03-17T15:05:03;15.25;67.01
65584;DHT22;62116;43.582;1.470;2023-03-17T15:07:40;15.24;67.12
65584;DHT22;62116;43.582;1.470;2023-03-17T15:10:17;15.25;67.36
65584;DHT22;62116;43.582;1.470;2023-03-17T15:12:44;15.24;67.51
65584;DHT22;62116;43.582;1.470;2023-03-17T15:15:22;15.25;67.86
65584;DHT22;62116;43.582;1.470;2023-03-17T15:17:53;15.30;68.03
65584;DHT22;62116;43.582;1.470;2023-03-17T15:20:19;15.34;68.55
65584;DHT22;62116;43.582;1.470;2023-03-17T15:22:57;15.38;67.74
65584;DHT22;62116;43.582;1.470;2023-03-17T15:25:38;15.45;68.06
65584;DHT22;62116;43.582;1.470;2023-03-17T15:28:14;15.49;67.85
65584;DHT22;62116;43.582;1.470;2023-03-17T15:30:45;15.48;67.47
65584;DHT22;62116;43.582;1.470;2023-03-17T15:33:41;15.49;67.82
65584;DHT22;62116;43.582;1.470;2023-03-17T15:36:13;15.52;67.91
65584;DHT22;62116;43.582;1.470;2023-03-17T15:38:39;15.52;67.58
65584;DHT22;62116;43.582;1.470;2023-03-17T15:41:05;15.54;67.75
65584;DHT22;62116;43.582;1.470;2023-03-17T15:43:30;15.44;67.66
65584;DHT22;62116;43.582;1.470;2023-03-17T15:46:02;15.41;67.77
65584;DHT22;62116;43.582;1.470;2023-03-17T15:48:31;15.42;68.05
65584;DHT22;62116;43.582;1.470;2023-03-17T15:50:58;15.38;68.08
65584;DHT22;62116;43.582;1.470;2023-03-17T15:53:25;15.38;68.21
65584;DHT22;62116;43.582;1.470;2023-03-17T15:55:50;15.35;68.28
65584;DHT22;62116;43.582;1.470;2023-03-17T15:58:16;15.37;68.40
65584;DHT22;62116;43.582;1.470;2023-03-17T16:00:42;15.35;68.19
65584;DHT22;62116;43.582;1.470;2023-03-17T16:05:42;15.38;67.79
65584;DHT22;62116;43.582;1.470;2023-03-17T16:08:15;15.42;67.76
65584;DHT22;62116;43.582;1.470;2023-03-17T16:10:42;15.41;67.55
65584;DHT22;62116;43.582;1.470;2023-03-17T16:13:09;15.37;68.12
65584;DHT22;62116;43.582;1.470;2023-03-17T16:15:37;15.38;67.99
65584;DHT22;62116;43.582;1.470;2023-03-17T16:18:05;15.39;68.09
65584;DHT22;62116;43.582;1.470;2023-03-17T16:20:38;15.35;68.30
65584;DHT22;62116;43.582;1.470;2023-03-17T16:23:21;15.28;68.33
65584;DHT22;62116;43.582;1.470;2023-03-17T16:25:47;15.23;68.64
65584;DHT22;62116;43.582;1.470;2023-03-17T16:28:24;15.24;69.04
65584;DHT22;62116;43.582;1.470;2023-03-17T16:30:51;15.18;69.00
65584;DHT22;62116;43.582;1.470;2023-03-17T16:33:21;15.20;69.16
65584;DHT22;62116;43.582;1.470;2023-03-17T16:35:47;15.14;69.19
65584;DHT22;62116;43.582;1.470;2023-03-17T16:38:17;15.15;69.32
65584;DHT22;62116;43.582;1.470;2023-03-17T16:40:49;15.05;69.62
65584;DHT22;62116;43.582;1.470;2023-03-17T16:43:35;15.05;69.70
65584;DHT22;62116;43.582;1.470;2023-03-17T16:46:04;15.00;69.96
65584;DHT22;62116;43.582;1.470;2023-03-17T16:48:30;14.96;70.26
65584;DHT22;62116;43.582;1.470;2023-03-17T16:50:56;14.96;70.26
65584;DHT22;62116;43.582;1.470;2023-03-17T16:53:22;14.94;70.49
65584;DHT22;62116;43.582;1.470;2023-03-17T16:55:48;14.91;70.38
65584;DHT22;62116;43.582;1.470;2023-03-17T16:58:19;14.93;70.43